Time;durP1;ratioP1;P1;durP2;ratioP2;P2;SDS_P1;SDS_P2;PMS_P1;PMS_P2;Temp;Humidity;BMP_temperature;BMP_pressure;BME280_temperature;BME280_humidity;BME280_pressure;Samples;Min_cycle;Max_cycle;Signal;HPM_P1;HPM_P2
2023/07/08 00:00:24;;;;;;;6.03;3.30;;;;;;;-143.49;100.00;65027.28;5094415;28;20039;-76
2023/07/08 00:02:50;;;;;;;5.90;3.75;;;;;;;-143.49;100.00;65027.28;5094297;28;20073;-76
2023/07/08 00:05:18;;;;;;;5.55;3.28;;;;;;;-143.49;100.00;65027.28;5094253;28;20073;-78
2023/07/08 00:07:43;;;;;;;6.78;3.45;;;;;;;-143.49;100.00;65027.28;5075992;28;20043;-77
2023/07/08 00:10:21;;;;;;;5.75;3.17;;;;;;;-143.49;100.00;65027.28;5094308;28;20058;-76
2023/07/08 00:12:50;;;;;;;12.52;3.58;;;;;;;-143.49;100.00;65027.28;5094124;28;20059;-76
2023/07/08 00:15:16;;;;;;;6.07;3.15;;;;;;;-143.49;100.00;65027.28;5076013;28;20027;-76
2023/07/08 00:17:43;;;;;;;7.53;3.45;;;;;;;-143.49;100.00;65027.28;5075936;28;20135;-77
2023/07/08 00:20:23;;;;;;;7.13;3.70;;;;;;;-143.49;100.00;65027.28;5093796;28;20077;-77
2023/07/08 00:22:49;;;;;;;11.05;3.58;;;;;;;-143.49;100.00;65027.28;5094059;28;20028;-76
2023/07/08 00:25:16;;;;;;;5.43;3.40;;;;;;;-143.49;100.00;65027.28;5075751;28;20475;-76
2023/07/08 00:27:41;;;;;;;7.10;3.30;;;;;;;-143.49;100.00;65027.28;5093883;28;20028;-76
2023/07/08 00:30:28;;;;;;;7.70;3.60;;;;;;;-143.49;100.00;65027.28;5075741;28;20093;-77
2023/07/08 00:32:55;;;;;;;10.68;3.78;;;;;;;-143.49;100.00;65027.28;5075663;28;20024;-77
2023/07/08 00:35:32;;;;;;;7.30;3.30;;;;;;;-143.49;100.00;65027.28;5093741;28;20024;-77
2023/07/08 00:38:01;;;;;;;5.88;3.25;;;;;;;-143.49;100.00;65027.28;5093796;28;20032;-77
2023/07/08 00:40:29;;;;;;;10.45;3.30;;;;;;;-143.49;100.00;65027.28;5093737;28;20020;-77
2023/07/08 00:42:55;;;;;;;10.35;3.70;;;;;;;-143.49;100.00;65027.28;5093575;28;20494;-77
2023/07/08 00:45:37;;;;;;;6.65;3.60;;;;;;;-143.49;100.00;65027.28;5093589;28;20378;-76
2023/07/08 00:48:22;;;;;;;7.45;3.65;;;;;;;-143.49;100.00;65027.28;5075406;28;20065;-77
2023/07/08 00:50:48;;;;;;;7.80;3.58;;;;;;;-143.49;100.00;65027.28;5075340;28;20382;-76
2023/07/08 00:53:29;;;;;;;7.53;3.42;;;;;;;-143.49;100.00;65027.28;5093533;28;20016;-76
2023/07/08 00:56:03;;;;;;;7.15;3.45;;;;;;;-143.49;100.00;65027.28;5093584;28;20024;-76
2023/07/08 00:58:35;;;;;;;6.68;3.85;;;;;;;-143.49;100.00;65027.28;5075486;28;20431;-77
2023/07/08 01:01:03;;;;;;;13.35;3.70;;;;;;;-143.49;100.00;65027.28;5093437;28;20024;-77
2023/07/08 01:03:29;;;;;;;7.60;3.55;;;;;;;-143.49;100.00;65027.28;5075194;28;20119;-76
2023/07/08 01:05:59;;;;;;;8.57;3.80;;;;;;;-143.49;100.00;65027.28;5093170;28;20111;-77
2023/07/08 01:08:28;;;;;;;5.70;3.35;;;;;;;-143.49;100.00;65027.28;5093216;28;20047;-77
2023/07/08 01:11:01;;;;;;;7.82;3.40;;;;;;;-143.49;100.00;65027.28;5093267;28;20024;-77
2023/07/08 01:13:29;;;;;;;7.43;3.75;;;;;;;-143.49;100.00;65027.28;5075251;28;20028;-77
2023/07/08 01:15:54;;;;;;;8.45;3.40;;;;;;;-143.49;100.00;65027.28;5093350;28;20103;-76
2023/07/08 01:18:21;;;;;;;8.00;3.80;;;;;;;-143.49;100.00;65027.28;5093334;28;20527;-77
2023/07/08 01:20:47;;;;;;;8.23;3.53;;;;;;;-143.49;100.00;65027.28;5093068;28;20019;-77
2023/07/08 01:23:13;;;;;;;9.50;3.25;;;;;;;-143.49;100.00;65027.28;5093260;28;20085;-76
2023/07/08 01:25:41;;;;;;;4.85;3.33;;;;;;;-143.49;100.00;65027.28;5075101;28;20028;-77
2023/07/08 01:28:06;;;;;;;9.93;3.75;;;;;;;-143.49;100.00;65027.28;5075103;28;20020;-77
2023/07/08 01:30:32;;;;;;;9.57;3.85;;;;;;;-143.49;100.00;65027.28;5093100;28;20047;-76
2023/07/08 01:33:03;;;;;;;9.27;3.20;;;;;;;-143.49;100.00;65027.28;5097093;28;20491;-77
2023/07/08 01:35:28;;;;;;;5.28;3.20;;;;;;;-143.49;100.00;65027.28;5097344;28;20020;-77
2023/07/08 01:38:00;;;;;;;8.20;3.50;;;;;;;-143.49;100.00;65027.28;5097137;28;20030;-77
2023/07/08 01:40:36;;;;;;;7.22;3.58;;;;;;;-143.49;100.00;65027.28;5078925;28;20027;-77
2023/07/08 01:43:04;;;;;;;8.52;3.72;;;;;;;-143.49;100.00;65027.28;5097078;28;20083;-77
2023/07/08 01:45:37;;;;;;;7.22;3.58;;;;;;;-143.49;100.00;65027.28;5097044;28;20024;-76
2023/07/08 01:48:06;;;;;;;5.13;3.42;;;;;;;-143.49;100.00;65027.28;5078720;28;20047;-76
2023/07/08 01:50:36;;;;;;;4.97;3.42;;;;;;;-143.49;100.00;65027.28;5078739;28;20073;-76
2023/07/08 01:53:06;;;;;;;9.98;3.40;;;;;;;-143.49;100.00;65027.28;5096989;28;20020;-77
2023/07/08 01:55:31;;;;;;;6.40;3.60;;;;;;;-143.49;100.00;65027.28;5096770;28;20076;-76
2023/07/08 01:57:57;;;;;;;8.18;3.75;;;;;;;-143.49;100.00;65027.28;5078482;28;20060;-77
2023/07/08 02:00:22;;;;;;;5.80;3.67;;;;;;;-143.49;100.00;65027.28;5078704;28;20031;-77
2023/07/08 02:02:50;;;;;;;9.13;3.70;;;;;;;-143.49;100.00;65027.28;5078436;28;20519;-77
2023/07/08 02:05:15;;;;;;;5.45;3.50;;;;;;;-143.49;100.00;65027.28;5078481;28;20016;-77
2023/07/08 02:07:40;;;;;;;6.25;3.78;;;;;;;-143.49;100.00;65027.28;5096686;28;20503;-76
2023/07/08 02:10:06;;;;;;;6.78;3.70;;;;;;;-143.49;100.00;65027.28;5096628;28;20067;-77
2023/07/08 02:12:32;;;;;;;7.25;3.78;;;;;;;-143.49;100.00;65027.28;5096735;28;20472;-77
2023/07/08 02:15:00;;;;;;;8.85;3.60;;;;;;;-143.49;100.00;65027.28;5078221;28;20020;-77
2023/07/08 02:17:25;;;;;;;7.45;3.70;;;;;;;-143.49;100.00;65027.28;5078321;28;20118;-77
2023/07/08 02:19:50;;;;;;;8.38;3.50;;;;;;;-143.49;100.00;65027.28;5096440;28;20067;-77
2023/07/08 02:22:16;;;;;;;13.70;4.05;;;;;;;-143.49;100.00;65027.28;5096325;28;20472;-77
2023/07/08 02:24:41;;;;;;;5.80;3.33;;;;;;;-143.49;100.00;65027.28;5078101;28;20081;-77
2023/07/08 02:27:06;;;;;;;7.93;3.75;;;;;;;-143.49;100.00;65027.28;5096252;28;20107;-76
2023/07/08 02:29:32;;;;;;;6.80;3.60;;;;;;;-143.49;100.00;65027.28;5078142;28;20028;-76
2023/07/08 02:31:57;;;;;;;5.63;3.53;;;;;;;-143.49;100.00;65027.28;5078018;28;20027;-77
2023/07/08 02:34:23;;;;;;;6.38;3.67;;;;;;;-143.49;100.00;65027.28;5096189;28;20031;-77
2023/07/08 02:36:48;;;;;;;5.20;3.50;;;;;;;-143.49;100.00;65027.28;5096152;28;20352;-78
2023/07/08 02:39:13;;;;;;;7.15;3.60;;;;;;;-143.49;100.00;65027.28;5095987;28;20051;-77
2023/07/08 02:41:38;;;;;;;6.88;3.50;;;;;;;-143.49;100.00;65027.28;5096080;28;20028;-78
2023/07/08 02:44:04;;;;;;;5.78;3.90;;;;;;;-143.49;100.00;65027.28;5077863;28;20024;-78
2023/07/08 02:46:29;;;;;;;5.95;3.70;;;;;;;-143.49;100.00;65027.28;5095869;28;20032;-77
2023/07/08 02:48:55;;;;;;;5.93;3.50;;;;;;;-143.49;100.00;65027.28;5096106;28;20024;-78
2023/07/08 02:51:20;;;;;;;11.27;3.95;;;;;;;-143.49;100.00;65027.28;5095941;28;20020;-78
2023/07/08 02:53:47;;;;;;;7.18;3.67;;;;;;;-143.49;100.00;65027.28;5077641;28;20107;-77
2023/07/08 02:56:13;;;;;;;8.95;3.72;;;;;;;-143.49;100.00;65027.28;5095785;28;20070;-76
2023/07/08 02:58:38;;;;;;;6.25;3.38;;;;;;;-143.49;100.00;65027.28;5095717;28;20471;-77
2023/07/08 03:01:06;;;;;;;8.60;3.78;;;;;;;-143.49;100.00;65027.28;5095659;28;20031;-77
2023/07/08 03:03:32;;;;;;;8.75;3.70;;;;;;;-143.49;100.00;65027.28;5077388;28;20490;-77
2023/07/08 03:06:00;;;;;;;7.10;3.80;;;;;;;-143.49;100.00;65027.28;5095369;28;20031;-77
2023/07/08 03:08:26;;;;;;;6.78;3.63;;;;;;;-143.49;100.00;65027.28;5095210;28;20434;-77
2023/07/08 03:11:00;;;;;;;7.47;3.42;;;;;;;-143.49;100.00;65027.28;5095506;28;20475;-76
2023/07/08 03:13:26;;;;;;;7.93;3.40;;;;;;;-143.49;100.00;65027.28;5095345;28;20028;-78
2023/07/08 03:15:51;;;;;;;6.80;3.72;;;;;;;-143.49;100.00;65027.28;5077247;28;20017;-78
2023/07/08 03:18:17;;;;;;;13.70;3.70;;;;;;;-143.49;100.00;65027.28;5095296;28;20032;-77
2023/07/08 03:20:46;;;;;;;6.10;3.70;;;;;;;-143.49;100.00;65027.28;5095267;28;20030;-77
2023/07/08 03:23:12;;;;;;;6.47;3.45;;;;;;;-143.49;100.00;65027.28;5077381;28;20039;-77
2023/07/08 03:25:38;;;;;;;7.47;3.88;;;;;;;-143.49;100.00;65027.28;5077096;28;20020;-77
2023/07/08 03:28:06;;;;;;;7.32;3.63;;;;;;;-143.49;100.00;65027.28;5095231;28;20472;-77
2023/07/08 03:30:32;;;;;;;6.95;3.90;;;;;;;-143.49;100.00;65027.28;5076936;28;20491;-78
2023/07/08 03:32:58;;;;;;;7.63;4.00;;;;;;;-143.49;100.00;65027.28;5076945;28;20498;-75
2023/07/08 03:35:23;;;;;;;10.50;4.07;;;;;;;-143.49;100.00;65027.28;5095118;28;20024;-76
2023/07/08 03:37:49;;;;;;;8.75;3.50;;;;;;;-143.49;100.00;65027.28;5095010;28;20028;-76
2023/07/08 03:40:14;;;;;;;7.65;3.33;;;;;;;-143.49;100.00;65027.28;5076724;28;20467;-76
2023/07/08 03:42:39;;;;;;;6.25;3.60;;;;;;;-143.49;100.00;65027.28;5095041;28;20483;-77
2023/07/08 03:45:05;;;;;;;7.68;4.05;;;;;;;-143.49;100.00;65027.28;5076711;28;20020;-76
2023/07/08 03:47:30;;;;;;;7.72;3.80;;;;;;;-143.49;100.00;65027.28;5076654;28;20081;-76
2023/07/08 03:49:56;;;;;;;12.02;3.80;;;;;;;-143.49;100.00;65027.28;5076524;28;20030;-76
2023/07/08 03:52:21;;;;;;;6.45;3.72;;;;;;;-143.49;100.00;65027.28;5076549;28;20030;-77
2023/07/08 03:54:46;;;;;;;5.72;3.63;;;;;;;-143.49;100.00;65027.28;5094150;28;20107;-78
2023/07/08 03:57:12;;;;;;;6.03;3.60;;;;;;;-143.49;100.00;65027.28;5094823;28;20039;-77
2023/07/08 03:59:38;;;;;;;8.60;3.72;;;;;;;-143.49;100.00;65027.28;5094608;28;20024;-76
2023/07/08 04:02:03;;;;;;;5.95;3.60;;;;;;;-143.49;100.00;65027.28;5076378;28;20440;-77
2023/07/08 04:04:29;;;;;;;5.95;3.88;;;;;;;-143.49;100.00;65027.28;5094588;28;20031;-76
2023/07/08 04:06:54;;;;;;;6.93;3.80;;;;;;;-143.49;100.00;65027.28;5076140;28;20617;-77
2023/07/08 04:09:20;;;;;;;6.38;3.88;;;;;;;-143.49;100.00;65027.28;5076103;28;20051;-76
2023/07/08 04:11:45;;;;;;;8.80;3.90;;;;;;;-143.49;100.00;65027.28;5094462;28;20027;-76
2023/07/08 04:14:11;;;;;;;6.95;4.05;;;;;;;-143.49;100.00;65027.28;5094317;28;20410;-76
2023/07/08 04:16:56;;;;;;;5.40;3.55;;;;;;;-143.49;100.00;65027.28;5076109;28;20399;-76
2023/07/08 04:19:23;;;;;;;7.57;3.65;;;;;;;-143.49;100.00;65027.28;5094077;28;20028;-76
2023/07/08 04:21:48;;;;;;;6.93;3.70;;;;;;;-143.49;100.00;65027.28;5076088;28;20463;-75
2023/07/08 04:24:15;;;;;;;8.48;3.75;;;;;;;-143.49;100.00;65027.28;5094078;28;20055;-77
2023/07/08 04:26:41;;;;;;;6.30;4.07;;;;;;;-143.49;100.00;65027.28;5093931;28;20027;-77
2023/07/08 04:29:11;;;;;;;7.22;3.78;;;;;;;-143.49;100.00;65027.28;5094008;28;20057;-77
2023/07/08 04:31:36;;;;;;;8.05;4.13;;;;;;;-143.49;100.00;65027.28;5093948;28;20023;-77
2023/07/08 04:34:02;;;;;;;9.75;3.80;;;;;;;-143.49;100.00;65027.28;5093992;28;20483;-77
2023/07/08 04:36:27;;;;;;;7.57;3.90;;;;;;;-143.49;100.00;65027.28;5075726;28;20024;-77
2023/07/08 04:38:52;;;;;;;10.07;3.85;;;;;;;-143.49;100.00;65027.28;5075685;28;20035;-76
2023/07/08 04:41:18;;;;;;;7.03;3.55;;;;;;;-143.49;100.00;65027.28;5075635;28;20072;-77
2023/07/08 04:43:44;;;;;;;6.97;3.53;;;;;;;-143.49;100.00;65027.28;5093753;28;20051;-77
2023/07/08 04:46:21;;;;;;;6.90;4.05;;;;;;;-143.49;100.00;65027.28;5075453;28;20020;-77
2023/07/08 04:48:47;;;;;;;9.45;3.80;;;;;;;-143.49;100.00;65027.28;5075520;28;20020;-77
2023/07/08 04:51:13;;;;;;;7.70;3.70;;;;;;;-143.49;100.00;65027.28;5093725;28;20026;-77
2023/07/08 04:53:39;;;;;;;10.13;3.78;;;;;;;-143.49;100.00;65027.28;5075565;28;20028;-77
2023/07/08 04:56:04;;;;;;;8.00;3.75;;;;;;;-143.49;100.00;65027.28;5075301;28;20447;-77
2023/07/08 04:58:29;;;;;;;8.15;3.97;;;;;;;-143.49;100.00;65027.28;5093604;28;20032;-77
2023/07/08 05:00:55;;;;;;;7.15;4.22;;;;;;;-143.49;100.00;65027.28;5093750;28;20471;-77
2023/07/08 05:03:20;;;;;;;6.40;4.00;;;;;;;-143.49;100.00;65027.28;5093772;28;20031;-77
2023/07/08 05:05:45;;;;;;;7.55;3.92;;;;;;;-143.49;100.00;65027.28;5092597;28;20115;-76
2023/07/08 05:08:11;;;;;;;9.18;3.78;;;;;;;-143.49;100.00;65027.28;5093360;28;20040;-76
2023/07/08 05:10:37;;;;;;;6.18;3.85;;;;;;;-143.49;100.00;65027.28;5093544;28;20093;-77
2023/07/08 05:13:02;;;;;;;8.48;4.00;;;;;;;-143.49;100.00;65027.28;5093297;28;20032;-77
2023/07/08 05:15:28;;;;;;;6.13;3.92;;;;;;;-143.49;100.00;65027.28;5093354;28;20043;-77
2023/07/08 05:17:53;;;;;;;5.88;3.50;;;;;;;-143.49;100.00;65027.28;5075233;28;20024;-77
2023/07/08 05:20:18;;;;;;;6.30;3.75;;;;;;;-143.49;100.00;65027.28;5093296;28;20095;-77
2023/07/08 05:22:45;;;;;;;5.30;3.72;;;;;;;-143.49;100.00;65027.28;5075312;28;20043;-77
2023/07/08 05:25:11;;;;;;;10.43;4.03;;;;;;;-143.49;100.00;65027.28;5075139;28;20020;-77
2023/07/08 05:27:37;;;;;;;8.80;3.70;;;;;;;-143.49;100.00;65027.28;5093104;28;20035;-77
2023/07/08 05:30:04;;;;;;;7.15;3.70;;;;;;;-143.49;100.00;65027.28;5075198;28;20471;-77
2023/07/08 05:32:29;;;;;;;7.25;3.90;;;;;;;-143.49;100.00;65027.28;5093363;28;20702;-77
2023/07/08 05:34:54;;;;;;;7.70;3.88;;;;;;;-143.49;100.00;65027.28;5093407;28;20107;-76
2023/07/08 05:37:25;;;;;;;6.65;3.80;;;;;;;-143.49;100.00;65027.28;5075440;28;20031;-77
2023/07/08 05:39:52;;;;;;;6.82;3.60;;;;;;;-143.49;100.00;65027.28;5093382;28;20020;-76
2023/07/08 05:42:18;;;;;;;8.15;3.92;;;;;;;-143.49;100.00;65027.28;5093078;28;20020;-77
2023/07/08 05:44:43;;;;;;;6.82;3.80;;;;;;;-143.49;100.00;65027.28;5093248;28;20035;-77
2023/07/08 05:47:08;;;;;;;7.75;3.80;;;;;;;-143.49;100.00;65027.28;5093505;28;20023;-77
2023/07/08 05:49:34;;;;;;;6.97;3.70;;;;;;;-143.49;100.00;65027.28;5075564;28;20024;-77
2023/07/08 05:52:05;;;;;;;7.15;3.60;;;;;;;-143.49;100.00;65027.28;5093274;28;20356;-78
2023/07/08 05:54:30;;;;;;;8.02;3.53;;;;;;;-143.49;100.00;65027.28;5093059;28;20024;-76
2023/07/08 05:56:56;;;;;;;6.50;3.33;;;;;;;-143.49;100.00;65027.28;5093136;28;20018;-78
2023/07/08 05:59:21;;;;;;;6.75;3.70;;;;;;;-143.49;100.00;65027.28;5075057;28;20020;-77
2023/07/08 06:01:46;;;;;;;9.25;3.55;;;;;;;-143.49;100.00;65027.28;5092885;28;20419;-77
2023/07/08 06:04:12;;;;;;;8.82;3.90;;;;;;;-143.49;100.00;65027.28;5074830;28;20475;-77
2023/07/08 06:06:37;;;;;;;7.47;3.42;;;;;;;-143.49;100.00;65027.28;5092432;28;20024;-76
2023/07/08 06:09:03;;;;;;;6.63;3.50;;;;;;;-143.49;100.00;65027.28;5092805;28;20088;-76
2023/07/08 06:11:29;;;;;;;8.25;3.65;;;;;;;-143.49;100.00;65027.28;5074704;28;20020;-76
2023/07/08 06:13:54;;;;;;;6.80;3.72;;;;;;;-143.49;100.00;65027.28;5074905;28;20024;-77
2023/07/08 06:16:19;;;;;;;6.45;3.58;;;;;;;-143.49;100.00;65027.28;5092979;28;20042;-76
2023/07/08 06:18:45;;;;;;;5.15;3.22;;;;;;;-143.49;100.00;65027.28;5095755;28;20077;-77
2023/07/08 06:21:10;;;;;;;5.38;3.70;;;;;;;-143.49;100.00;65027.28;5078178;28;20027;-76
2023/07/08 06:23:35;;;;;;;7.82;3.42;;;;;;;-143.49;100.00;65027.28;5078178;28;20402;-77
2023/07/08 06:26:01;;;;;;;6.68;3.40;;;;;;;-143.49;100.00;65027.28;5096306;28;20378;-77
2023/07/08 06:28:26;;;;;;;6.10;3.60;;;;;;;-143.49;100.00;65027.28;5096289;28;20027;-77
2023/07/08 06:30:51;;;;;;;5.68;3.80;;;;;;;-143.49;100.00;65027.28;5078185;28;20028;-77
2023/07/08 06:33:17;;;;;;;9.27;3.90;;;;;;;-143.49;100.00;65027.28;5096208;28;20047;-78
2023/07/08 06:35:43;;;;;;;6.53;3.78;;;;;;;-143.49;100.00;65027.28;5096071;28;20020;-77
2023/07/08 06:38:09;;;;;;;7.53;3.83;;;;;;;-143.49;100.00;65027.28;5096138;28;20034;-77
2023/07/08 06:40:34;;;;;;;6.97;3.50;;;;;;;-143.49;100.00;65027.28;5077869;28;20020;-77
2023/07/08 06:43:00;;;;;;;12.55;3.80;;;;;;;-143.49;100.00;65027.28;5077754;28;20035;-77
2023/07/08 06:45:25;;;;;;;5.63;3.55;;;;;;;-143.49;100.00;65027.28;5095866;28;20410;-77
2023/07/08 06:47:51;;;;;;;6.07;3.60;;;;;;;-143.49;100.00;65027.28;5096004;28;20028;-77
2023/07/08 06:50:16;;;;;;;7.40;3.50;;;;;;;-143.49;100.00;65027.28;5095852;28;20027;-77
2023/07/08 06:52:42;;;;;;;8.00;3.65;;;;;;;-143.49;100.00;65027.28;5095800;28;20503;-77
2023/07/08 06:55:09;;;;;;;6.80;3.70;;;;;;;-143.49;100.00;65027.28;5095691;28;20020;-77
2023/07/08 06:57:35;;;;;;;7.75;3.75;;;;;;;-143.49;100.00;65027.28;5095605;28;20100;-77
2023/07/08 07:00:01;;;;;;;6.40;3.53;;;;;;;-143.49;100.00;65027.28;5095669;28;20498;-77
2023/07/08 07:02:27;;;;;;;10.70;3.70;;;;;;;-143.49;100.00;65027.28;5095547;28;20059;-77
2023/07/08 07:04:52;;;;;;;6.82;3.38;;;;;;;-143.49;100.00;65027.28;5095365;28;20059;-77
2023/07/08 07:07:18;;;;;;;6.72;3.58;;;;;;;-143.49;100.00;65027.28;5095347;28;20454;-77
2023/07/08 07:09:43;;;;;;;6.60;3.40;;;;;;;-143.49;100.00;65027.28;5095462;28;20028;-77
2023/07/08 07:12:08;;;;;;;6.30;3.40;;;;;;;-143.49;100.00;65027.28;5095545;28;20020;-78
2023/07/08 07:14:34;;;;;;;7.55;3.58;;;;;;;-143.49;100.00;65027.28;5095361;28;20024;-78
2023/07/08 07:17:00;;;;;;;10.30;3.75;;;;;;;-143.49;100.00;65027.28;5095333;28;20070;-77
2023/07/08 07:19:25;;;;;;;6.53;3.60;;;;;;;-143.49;100.00;65027.28;5076971;28;20051;-78
2023/07/08 07:21:51;;;;;;;6.50;3.30;;;;;;;-143.49;100.00;65027.28;5077033;28;20068;-78
2023/07/08 07:24:17;;;;;;;6.38;3.30;;;;;;;-143.49;100.00;65027.28;5077265;28;20024;-77
2023/07/08 07:26:43;;;;;;;6.03;3.50;;;;;;;-143.49;100.00;65027.28;5096006;28;20023;-77
2023/07/08 07:29:08;;;;;;;8.18;3.60;;;;;;;-143.49;100.00;65027.28;5094169;28;20034;-77
2023/07/08 07:31:33;;;;;;;7.25;3.30;;;;;;;-143.49;100.00;65027.28;5094988;28;20020;-76
2023/07/08 07:34:00;;;;;;;7.43;3.40;;;;;;;-143.49;100.00;65027.28;5077477;28;20483;-76
2023/07/08 07:36:25;;;;;;;6.18;3.42;;;;;;;-143.49;100.00;65027.28;5095380;28;20024;-76
2023/07/08 07:38:51;;;;;;;7.03;3.42;;;;;;;-143.49;100.00;65027.28;5095447;28;20024;-77
2023/07/08 07:41:16;;;;;;;9.15;3.17;;;;;;;-143.49;100.00;65027.28;5095048;28;20015;-76
2023/07/08 07:43:42;;;;;;;8.90;3.67;;;;;;;-143.49;100.00;65027.28;5095125;28;20020;-77
2023/07/08 07:46:07;;;;;;;11.65;3.30;;;;;;;-143.49;100.00;65027.28;5094821;28;20047;-77
2023/07/08 07:48:33;;;;;;;7.72;3.55;;;;;;;-143.49;100.00;65027.28;5094470;28;20031;-77
2023/07/08 07:50:58;;;;;;;6.63;3.50;;;;;;;-143.49;100.00;65027.28;5094589;28;20103;-77
2023/07/08 07:53:24;;;;;;;6.25;3.20;;;;;;;-143.49;100.00;65027.28;5095073;28;20106;-76
2023/07/08 07:55:57;;;;;;;6.20;3.33;;;;;;;-143.49;100.00;65027.28;5076495;28;20430;-76
2023/07/08 07:58:22;;;;;;;6.95;3.42;;;;;;;-143.49;100.00;65027.28;5094567;28;20124;-76
2023/07/08 08:00:47;;;;;;;6.70;3.45;;;;;;;-143.49;100.00;65027.28;5099115;28;20031;-73
2023/07/08 08:03:13;;;;;;;7.40;3.72;;;;;;;-143.49;100.00;65027.28;5099164;28;20589;-74
2023/07/08 08:05:38;;;;;;;6.45;3.33;;;;;;;-143.49;100.00;65027.28;5082899;28;20495;-73
2023/07/08 08:08:03;;;;;;;6.35;3.33;;;;;;;-143.49;100.00;65027.28;5100510;28;20047;-73
2023/07/08 08:10:30;;;;;;;6.45;3.40;;;;;;;-143.49;100.00;65027.28;5096283;28;20374;-76
2023/07/08 08:12:55;;;;;;;7.43;3.50;;;;;;;-143.49;100.00;65027.28;5076073;28;20446;-75
2023/07/08 08:15:22;;;;;;;9.77;3.67;;;;;;;-143.49;100.00;65027.28;5093909;28;20040;-76
2023/07/08 08:17:48;;;;;;;6.97;3.60;;;;;;;-143.49;100.00;65027.28;5094130;28;20053;-75
2023/07/08 08:20:14;;;;;;;5.53;3.50;;;;;;;-143.49;100.00;65027.28;5093916;28;20517;-75
2023/07/08 08:22:39;;;;;;;9.30;3.28;;;;;;;-143.49;100.00;65027.28;5075754;28;20024;-76
2023/07/08 08:25:05;;;;;;;8.80;3.50;;;;;;;-143.49;100.00;65027.28;5075678;28;20024;-75
2023/07/08 08:27:30;;;;;;;8.75;3.72;;;;;;;-143.49;100.00;65027.28;5093172;28;20027;-75
2023/07/08 08:29:56;;;;;;;10.68;3.65;;;;;;;-143.49;100.00;65027.28;5094006;28;20065;-76
2023/07/08 08:32:21;;;;;;;7.07;3.40;;;;;;;-143.49;100.00;65027.28;5093805;28;20024;-77
2023/07/08 08:34:47;;;;;;;6.90;3.60;;;;;;;-143.49;100.00;65027.28;5075621;28;20016;-76
2023/07/08 08:37:12;;;;;;;8.63;3.63;;;;;;;-143.49;100.00;65027.28;5075501;28;20024;-75
2023/07/08 08:39:37;;;;;;;7.07;3.75;;;;;;;-143.49;100.00;65027.28;5075341;28;20574;-76
2023/07/08 08:42:03;;;;;;;8.40;3.38;;;;;;;-143.49;100.00;65027.28;5093545;28;20490;-69
2023/07/08 08:44:34;;;;;;;8.48;3.70;;;;;;;-143.49;100.00;65027.28;5093617;28;20031;-75
2023/07/08 08:47:22;;;;;;;10.32;4.05;;;;;;;-143.49;100.00;65027.28;5093541;28;20369;-76
2023/07/08 08:49:56;;;;;;;6.00;3.63;;;;;;;-143.49;100.00;65027.28;5093497;28;20031;-75
2023/07/08 08:52:21;;;;;;;8.73;4.10;;;;;;;-143.49;100.00;65027.28;5094288;28;20030;-75
2023/07/08 08:54:47;;;;;;;8.35;3.72;;;;;;;-143.49;100.00;65027.28;5075241;28;20032;-76
2023/07/08 08:57:57;;;;;;;7.07;3.92;;;;;;;-143.49;100.00;65027.28;5075179;28;20479;-75
2023/07/08 09:00:44;;;;;;;9.85;3.50;;;;;;;-143.49;100.00;65027.28;5031477;28;20043;-75
2023/07/08 09:03:16;;;;;;;6.30;3.83;;;;;;;-143.49;100.00;65027.28;5075480;28;20031;-75
2023/07/08 09:05:45;;;;;;;7.57;3.60;;;;;;;-143.49;100.00;65027.28;5093410;28;20472;-73
2023/07/08 09:08:23;;;;;;;8.68;3.88;;;;;;;-143.49;100.00;65027.28;5093113;28;20410;-75
2023/07/08 09:11:05;;;;;;;10.18;4.32;;;;;;;-143.49;100.00;65027.28;5075024;28;20027;-76
2023/07/08 09:13:33;;;;;;;8.43;4.18;;;;;;;-143.49;100.00;65027.28;5093376;28;20020;-75
2023/07/08 09:16:07;;;;;;;7.55;4.30;;;;;;;-143.49;100.00;65027.28;5093218;28;20031;-76
2023/07/08 09:18:42;;;;;;;8.43;3.80;;;;;;;-143.49;100.00;65027.28;5093253;28;20028;-76
2023/07/08 09:21:33;;;;;;;6.85;4.10;;;;;;;-143.49;100.00;65027.28;5074921;28;20115;-74
2023/07/08 09:24:01;;;;;;;6.50;4.00;;;;;;;-143.49;100.00;65027.28;5091569;28;20073;-75
2023/07/08 09:26:30;;;;;;;7.13;4.30;;;;;;;-143.49;100.00;65027.28;5091965;28;20431;-76
2023/07/08 09:28:55;;;;;;;10.93;4.30;;;;;;;-143.49;100.00;65027.28;5091106;28;20020;-75
2023/07/08 09:31:22;;;;;;;8.43;3.72;;;;;;;-143.49;100.00;65027.28;5091218;28;20074;-75
2023/07/08 09:33:51;;;;;;;7.22;3.95;;;;;;;-143.49;100.00;65027.28;5073059;28;20381;-74
2023/07/08 09:36:21;;;;;;;7.03;4.13;;;;;;;-143.49;100.00;65027.28;5091298;28;20016;-73
2023/07/08 09:38:49;;;;;;;8.55;4.38;;;;;;;-143.49;100.00;65027.28;5091712;28;20102;-75
2023/07/08 09:41:28;;;;;;;9.10;4.18;;;;;;;-143.49;100.00;65027.28;5072829;28;20024;-75
2023/07/08 09:44:12;;;;;;;8.27;4.03;;;;;;;-143.49;100.00;65027.28;5092808;28;20076;-74
2023/07/08 09:46:38;;;;;;;6.22;4.00;;;;;;;-143.49;100.00;65027.28;5092901;28;20506;-75
2023/07/08 09:49:34;;;;;;;10.77;4.20;;;;;;;-143.49;100.00;65027.28;5074392;28;20051;-76
2023/07/08 09:52:01;;;;;;;13.88;4.28;;;;;;;-143.49;100.00;65027.28;5058896;28;20097;-73
2023/07/08 09:54:27;;;;;;;6.55;4.53;;;;;;;-143.49;100.00;65027.28;5096919;28;20024;-75
2023/07/08 09:56:55;;;;;;;9.57;4.95;;;;;;;-143.49;100.00;65027.28;5096663;28;20178;-73
2023/07/08 09:59:28;;;;;;;12.27;4.80;;;;;;;-143.49;100.00;65027.28;5078476;28;20012;-73
2023/07/08 10:01:53;;;;;;;9.68;4.78;;;;;;;-143.49;100.00;65027.28;5096632;28;20407;-74
2023/07/08 10:04:19;;;;;;;11.68;4.60;;;;;;;-143.49;100.00;65027.28;5078482;28;20066;-75
2023/07/08 10:06:48;;;;;;;8.57;4.60;;;;;;;-143.49;100.00;65027.28;5078173;28;20101;-74
2023/07/08 10:09:20;;;;;;;8.10;4.43;;;;;;;-143.49;100.00;65027.28;5096482;28;20507;-75
2023/07/08 10:11:50;;;;;;;12.13;4.78;;;;;;;-143.49;100.00;65027.28;5078262;28;20118;-74
2023/07/08 10:14:21;;;;;;;7.65;4.70;;;;;;;-143.49;100.00;65027.28;5096389;28;20024;-75
2023/07/08 10:16:47;;;;;;;10.77;4.80;;;;;;;-143.49;100.00;65027.28;5096538;28;20027;-73
2023/07/08 10:19:17;;;;;;;9.35;5.10;;;;;;;-143.49;100.00;65027.28;5078022;28;20403;-75
2023/07/08 10:21:59;;;;;;;11.70;4.93;;;;;;;-143.49;100.00;65027.28;5096361;28;20055;-75
2023/07/08 10:25:03;;;;;;;9.25;4.70;;;;;;;-143.49;100.00;65027.28;5096304;28;20030;-76
2023/07/08 10:27:59;;;;;;;10.75;5.18;;;;;;;-143.49;100.00;65027.28;5096125;28;20047;-76
2023/07/08 10:30:29;;;;;;;10.57;4.97;;;;;;;-143.49;100.00;65027.28;5062707;28;20047;-74
2023/07/08 10:33:13;;;;;;;6.82;4.22;;;;;;;-143.49;100.00;65027.28;5096212;28;20517;-75
2023/07/08 10:36:11;;;;;;;10.93;4.95;;;;;;;-143.49;100.00;65027.28;5077643;28;20126;-74
2023/07/08 10:38:47;;;;;;;9.13;5.00;;;;;;;-143.49;100.00;65027.28;5088220;28;20074;-72
2023/07/08 10:41:30;;;;;;;7.38;5.00;;;;;;;-143.49;100.00;65027.28;5095477;28;20085;-74
2023/07/08 10:44:18;;;;;;;10.27;4.70;;;;;;;-143.49;100.00;65027.28;5095399;28;20051;-74
2023/07/08 10:47:05;;;;;;;10.25;4.95;;;;;;;-143.49;100.00;65027.28;5095418;28;20523;-74
2023/07/08 10:49:49;;;;;;;7.15;5.18;;;;;;;-143.49;100.00;65027.28;5096089;28;20437;-74
2023/07/08 10:52:34;;;;;;;9.27;5.07;;;;;;;-143.49;100.00;65027.28;5096207;28;20485;-75
2023/07/08 10:55:14;;;;;;;8.57;5.00;;;;;;;-143.49;100.00;65027.28;5095616;28;20039;-75
2023/07/08 10:58:17;;;;;;;10.35;5.03;;;;;;;-143.49;100.00;65027.28;5095494;28;20020;-76
2023/07/08 11:01:18;;;;;;;10.20;5.22;;;;;;;-143.49;100.00;65027.28;5077386;28;20426;-73
2023/07/08 11:04:13;;;;;;;10.10;5.10;;;;;;;-143.49;100.00;65027.28;5079861;28;20559;-75
2023/07/08 11:06:56;;;;;;;7.40;4.95;;;;;;;-143.49;100.00;65027.28;5095399;28;20023;-76
2023/07/08 11:09:30;;;;;;;9.85;5.10;;;;;;;-143.49;100.00;65027.28;5077303;28;20484;-75
2023/07/08 11:12:05;;;;;;;12.77;5.47;;;;;;;-143.49;100.00;65027.28;5095318;28;20024;-75
2023/07/08 11:14:38;;;;;;;9.48;5.10;;;;;;;-143.49;100.00;65027.28;5095264;28;20027;-74
2023/07/08 11:17:18;;;;;;;11.45;5.22;;;;;;;-143.49;100.00;65027.28;5095295;28;20093;-74